createdAt,value
2022-11-08T02:39:14.472Z,3.50
2022-11-08T02:41:41.859Z,2.63
2022-11-08T02:44:09.220Z,3.10
2022-11-08T02:46:37.442Z,3.72
2022-11-08T02:49:05.137Z,3.63
2022-11-08T02:51:32.549Z,2.92
2022-11-08T02:54:00.005Z,3.45
2022-11-08T02:56:28.772Z,3.45
2022-11-08T02:58:56.209Z,3.23
2022-11-08T03:01:23.744Z,3.33
2022-11-08T03:03:51.274Z,3.10
2022-11-08T03:06:18.715Z,2.55
2022-11-08T03:08:46.136Z,2.53
2022-11-08T03:11:13.522Z,2.70
2022-11-08T03:13:42.297Z,3.30
2022-11-08T03:16:09.792Z,3.37
2022-11-08T03:18:37.214Z,2.92
2022-11-08T03:21:04.612Z,3.45
2022-11-08T03:23:32.759Z,2.92
2022-11-08T03:26:01.497Z,3.20
2022-11-08T03:28:29.286Z,3.30
2022-11-08T03:30:58.170Z,3.53
2022-11-08T03:33:25.828Z,3.08
2022-11-08T03:35:53.262Z,2.85
2022-11-08T03:38:20.930Z,2.92
2022-11-08T03:40:48.345Z,2.80
2022-11-08T03:43:15.985Z,2.47
2022-11-08T03:45:43.576Z,2.90
2022-11-08T03:48:12.285Z,2.78
2022-11-08T03:50:39.660Z,2.80
2022-11-08T03:53:07.049Z,3.10
2022-11-08T03:55:34.445Z,3.08
2022-11-08T03:58:01.825Z,3.25
2022-11-08T04:00:29.907Z,2.80
2022-11-08T04:03:02.017Z,3.00
2022-11-08T04:05:32.225Z,2.80
2022-11-08T04:07:59.921Z,3.45
2022-11-08T04:10:27.287Z,3.03
2022-11-08T04:13:12.338Z,2.90
2022-11-08T04:15:39.799Z,3.33
2022-11-08T04:18:24.784Z,2.83
2022-11-08T04:21:10.728Z,2.55
2022-11-08T04:23:38.490Z,3.20
2022-11-08T04:26:06.852Z,3.10
2022-11-08T04:28:35.064Z,3.05
2022-11-08T04:31:03.762Z,3.30
2022-11-08T04:33:31.489Z,2.60
2022-11-08T04:36:03.923Z,2.80
2022-11-08T04:38:31.587Z,2.75
2022-11-08T04:41:03.626Z,2.75
2022-11-08T04:43:31.275Z,2.50
2022-11-08T04:46:02.132Z,2.75
2022-11-08T04:48:29.540Z,2.63
2022-11-08T04:50:57.276Z,2.85
2022-11-08T04:53:26.023Z,3.72
2022-11-08T04:55:59.639Z,2.73
2022-11-08T04:58:27.072Z,2.42
2022-11-08T05:00:54.442Z,2.28
2022-11-08T05:03:21.823Z,2.40
2022-11-08T05:05:49.198Z,2.72
2022-11-08T05:08:16.805Z,2.30
2022-11-08T05:10:45.756Z,3.10
2022-11-08T05:13:13.145Z,2.63
2022-11-08T05:15:40.608Z,2.75
2022-11-08T05:18:07.947Z,2.47
2022-11-08T05:20:53.079Z,2.22
2022-11-08T05:23:26.153Z,2.25
2022-11-08T05:25:55.431Z,2.10
2022-11-08T05:28:22.780Z,2.58
2022-11-08T05:30:54.297Z,2.50
2022-11-08T05:33:21.814Z,2.30
2022-11-08T05:35:49.384Z,2.42
2022-11-08T05:38:17.235Z,2.28
2022-11-08T05:40:44.971Z,2.80
2022-11-08T05:43:13.753Z,2.30
2022-11-08T05:45:41.245Z,2.22
2022-11-08T05:48:08.694Z,2.92
2022-11-08T05:50:36.351Z,2.28
2022-11-08T05:53:03.833Z,2.70
2022-11-08T05:55:32.627Z,2.60
2022-11-08T05:58:00.047Z,2.60
2022-11-08T06:00:28.768Z,2.58
2022-11-08T06:02:56.155Z,2.40
2022-11-08T06:05:23.574Z,2.42
2022-11-08T06:07:51.036Z,2.10
2022-11-08T06:10:18.804Z,2.45
2022-11-08T06:12:46.156Z,2.55
2022-11-08T06:15:13.537Z,2.28
2022-11-08T06:17:42.316Z,2.30
2022-11-08T06:20:11.843Z,2.40
2022-11-08T06:22:40.005Z,2.30
2022-11-08T06:25:07.650Z,2.33
2022-11-08T06:27:36.199Z,2.67
2022-11-08T06:30:03.713Z,2.40
2022-11-08T06:32:31.737Z,2.35
2022-11-08T06:35:00.538Z,2.42
2022-11-08T06:37:27.972Z,2.03
2022-11-08T06:39:55.604Z,2.00
2022-11-08T06:42:23.103Z,1.60
2022-11-08T06:44:50.528Z,2.08
2022-11-08T06:47:18.089Z,2.38
2022-11-08T06:49:46.982Z,2.35
2022-11-08T06:52:15.765Z,2.22
2022-11-08T06:54:43.157Z,2.43
2022-11-08T06:57:10.556Z,2.20
2022-11-08T06:59:38.356Z,1.98
2022-11-08T07:02:05.855Z,2.13
2022-11-08T07:04:33.330Z,2.00
2022-11-08T07:07:00.717Z,2.22
2022-11-08T07:09:29.865Z,1.90
2022-11-08T07:11:57.471Z,1.77
2022-11-08T07:14:24.872Z,1.98
2022-11-08T07:16:52.248Z,2.00
2022-11-08T07:19:19.642Z,1.85
2022-11-08T07:21:47.026Z,2.00
2022-11-08T07:24:14.415Z,2.10
2022-11-08T07:26:43.127Z,1.67
2022-11-08T07:29:15.639Z,1.60
2022-11-08T07:31:43.471Z,2.08
2022-11-08T07:34:10.893Z,1.77
2022-11-08T07:36:38.298Z,1.77
2022-11-08T07:39:06.931Z,1.67
2022-11-08T07:41:34.772Z,1.80
2022-11-08T07:44:03.511Z,1.50
2022-11-08T07:46:30.876Z,1.80
2022-11-08T07:48:58.243Z,1.73
2022-11-08T07:51:25.618Z,1.40
2022-11-08T07:53:52.991Z,1.80
2022-11-08T07:56:20.350Z,1.77
2022-11-08T07:58:47.721Z,2.08
2022-11-08T08:01:16.431Z,2.10
2022-11-08T08:03:43.850Z,1.80
2022-11-08T08:06:11.302Z,1.83
2022-11-08T08:08:38.760Z,1.85
2022-11-08T08:11:06.255Z,1.90
2022-11-08T08:13:33.605Z,1.90
2022-11-08T08:16:01.457Z,1.70
2022-11-08T08:18:30.526Z,2.00
2022-11-08T08:20:57.951Z,1.45
2022-11-08T08:23:25.508Z,1.85
2022-11-08T08:25:53.091Z,1.77
2022-11-08T08:28:20.479Z,1.70
2022-11-08T08:30:47.807Z,1.70
2022-11-08T08:33:31.687Z,1.40
2022-11-08T08:36:01.637Z,2.00
2022-11-08T08:38:29.020Z,2.00
2022-11-08T08:40:56.410Z,1.83
2022-11-08T08:43:23.919Z,1.88
2022-11-08T08:45:51.536Z,1.80
2022-11-08T08:48:18.919Z,1.67
2022-11-08T08:50:46.303Z,1.67
2022-11-08T08:53:15.166Z,2.00
2022-11-08T08:55:43.182Z,1.60
2022-11-08T08:58:10.868Z,1.92
2022-11-08T09:03:25.670Z,1.92
2022-11-08T09:05:53.082Z,2.28
2022-11-08T09:08:21.758Z,1.90
2022-11-08T09:10:53.880Z,1.52
2022-11-08T09:13:21.412Z,2.13
2022-11-08T09:15:48.922Z,1.73
2022-11-08T09:18:17.474Z,1.70
2022-11-08T09:20:44.958Z,1.80
2022-11-08T09:23:12.638Z,1.83
2022-11-08T09:25:41.736Z,1.80
2022-11-08T09:28:09.312Z,1.80
2022-11-08T09:30:37.102Z,2.88
2022-11-08T09:33:04.868Z,2.17
2022-11-08T09:35:32.462Z,1.75
2022-11-08T09:37:59.845Z,1.70
2022-11-08T09:40:31.258Z,1.60
2022-11-08T09:43:05.649Z,2.50
2022-11-08T09:45:35.311Z,1.85
2022-11-08T09:50:35.417Z,1.73
2022-11-08T19:50:47.072Z,2.22
2022-11-08T19:53:14.474Z,2.90
2022-11-08T19:55:41.844Z,2.58
2022-11-08T19:58:09.238Z,2.38
2022-11-08T20:00:37.731Z,2.30
2022-11-08T20:03:05.129Z,1.85
2022-11-08T20:05:32.899Z,1.80
2022-11-08T20:08:05.904Z,1.95
2022-11-08T20:10:33.277Z,1.73
2022-11-08T20:13:00.648Z,1.75
2022-11-08T20:15:28.002Z,1.92
2022-11-08T20:17:55.408Z,2.05
2022-11-08T20:20:22.923Z,2.63
2022-11-08T20:22:50.312Z,2.30
2022-11-08T20:25:19.119Z,2.13
2022-11-08T20:27:46.508Z,2.33
2022-11-08T20:30:14.115Z,2.50
2022-11-08T20:32:41.503Z,2.65
2022-11-08T20:35:09.508Z,2.65
2022-11-08T20:37:36.879Z,2.53
2022-11-08T20:40:04.488Z,3.47
2022-11-08T20:42:33.226Z,3.53
2022-11-08T20:45:00.621Z,2.63
2022-11-08T20:47:28.055Z,3.03
2022-11-08T20:49:55.487Z,3.88
2022-11-08T20:52:26.637Z,3.05
2022-11-08T20:54:54.113Z,2.97
2022-11-08T20:57:21.619Z,2.67
2022-11-08T20:59:50.383Z,2.95
2022-11-08T21:02:17.767Z,2.87
2022-11-08T21:04:45.187Z,3.38
2022-11-08T21:08:01.376Z,3.13
2022-11-08T21:10:27.034Z,2.67
2022-11-08T21:12:47.351Z,3.15
2022-11-08T21:15:16.172Z,3.08
2022-11-08T21:17:43.567Z,3.90
2022-11-08T21:20:12.783Z,3.00
2022-11-08T21:22:40.147Z,2.83
2022-11-08T21:25:07.795Z,2.45
2022-11-08T21:27:37.069Z,3.58
2022-11-08T21:30:04.687Z,2.35
2022-11-08T21:32:34.070Z,3.03
2022-11-08T21:35:01.496Z,2.72
2022-11-08T21:37:28.962Z,3.67
2022-11-08T21:39:56.434Z,3.13
2022-11-08T21:42:23.843Z,2.85
2022-11-08T21:44:51.244Z,3.38
2022-11-08T21:47:18.670Z,3.70
2022-11-08T21:49:47.472Z,3.10
2022-11-08T21:52:14.895Z,3.77
2022-11-08T21:54:42.414Z,2.97
2022-11-08T21:57:09.896Z,3.28
2022-11-08T21:59:37.349Z,3.20
2022-11-08T22:02:04.774Z,3.22
2022-11-08T22:04:32.382Z,3.03
2022-11-08T22:07:01.199Z,3.38
2022-11-08T22:09:28.633Z,3.17
2022-11-08T22:11:56.031Z,3.53
2022-11-08T22:14:23.507Z,2.97
2022-11-08T22:16:50.897Z,2.65
2022-11-08T22:19:18.289Z,3.35
2022-11-08T22:21:47.375Z,2.90
2022-11-08T22:24:18.060Z,4.22
2022-11-08T22:26:45.553Z,2.95
2022-11-08T22:29:13.312Z,2.75
2022-11-08T22:31:40.955Z,2.78
2022-11-08T22:34:08.937Z,2.60
2022-11-08T22:36:42.904Z,2.90
2022-11-08T22:39:12.427Z,3.13
2022-11-08T22:41:41.320Z,3.35
2022-11-08T22:44:11.658Z,3.58
2022-11-08T22:46:39.914Z,3.85
2022-11-08T22:49:07.320Z,2.80
2022-11-08T22:51:35.069Z,3.17
2022-11-08T22:54:02.670Z,2.63
2022-11-08T22:56:30.070Z,2.60
2022-11-08T22:58:58.825Z,2.78
2022-11-08T23:01:26.406Z,3.37
2022-11-08T23:03:53.792Z,2.38
2022-11-08T23:06:21.186Z,2.25
2022-11-08T23:08:48.661Z,3.10
2022-11-08T23:11:33.681Z,2.33
2022-11-08T23:14:19.717Z,2.47
2022-11-08T23:16:47.129Z,2.30
2022-11-08T23:19:32.718Z,2.40
2022-11-08T23:22:18.099Z,3.47
2022-11-08T23:24:45.705Z,2.78
2022-11-08T23:27:31.819Z,3.67
2022-11-08T23:30:17.933Z,3.33
2022-11-08T23:32:46.067Z,3.60
2022-11-08T23:35:13.749Z,3.80
2022-11-08T23:37:41.400Z,3.88
2022-11-08T23:40:27.789Z,4.03
2022-11-08T23:43:21.277Z,3.83
2022-11-08T23:45:50.535Z,3.15
2022-11-08T23:48:17.913Z,3.67
2022-11-08T23:50:49.143Z,2.40
2022-11-08T23:53:16.809Z,3.50
2022-11-08T23:55:44.503Z,3.13
2022-11-08T23:58:12.249Z,2.60
